createdAt,value
2022-09-29T00:04:03.824Z,92.97
2022-09-29T00:09:06.885Z,93.06
2022-09-29T00:14:09.601Z,93.08
2022-09-29T00:19:13.685Z,93.44
2022-09-29T00:24:16.533Z,93.47
2022-09-29T00:29:19.378Z,93.83
2022-09-29T00:34:23.470Z,93.74
2022-09-29T00:39:26.529Z,94.33
2022-09-29T00:44:57.107Z,94.55
2022-09-29T00:50:05.692Z,94.22
2022-09-29T00:55:13.866Z,94.45
2022-09-29T01:00:17.656Z,94.47
2022-09-29T01:05:24.835Z,94.80
2022-09-29T01:10:27.731Z,94.47
2022-09-29T01:15:31.305Z,94.55
2022-09-29T01:20:42.854Z,95.00
2022-09-29T01:26:23.859Z,95.01
2022-09-29T01:31:35.869Z,95.27
2022-09-29T01:36:51.566Z,95.44
2022-09-29T01:41:58.553Z,95.06
2022-09-29T01:47:09.222Z,95.50
2022-09-29T01:52:16.161Z,95.46
2022-09-29T01:57:25.586Z,95.68
2022-09-29T02:02:37.476Z,96.11
2022-09-29T02:07:44.014Z,95.96
2022-09-29T02:12:48.365Z,95.83
2022-09-29T02:17:53.210Z,96.05
2022-09-29T02:22:56.859Z,95.77
2022-09-29T02:27:59.592Z,96.04
2022-09-29T02:33:03.752Z,95.96
2022-09-29T02:38:13.297Z,95.77
2022-09-29T02:43:36.002Z,95.72
2022-09-29T02:49:05.110Z,95.95
2022-09-29T02:54:26.176Z,95.70
2022-09-29T02:59:35.583Z,95.79
2022-09-29T03:04:39.940Z,95.88
2022-09-29T03:09:42.626Z,95.82
2022-09-29T03:14:45.346Z,95.71
2022-09-29T03:19:49.444Z,95.72
2022-09-29T03:24:52.168Z,95.63
2022-09-29T03:29:54.887Z,95.66
2022-09-29T03:34:58.994Z,95.52
2022-09-29T03:40:02.202Z,95.48
2022-09-29T03:45:05.536Z,95.30
2022-09-29T03:50:10.545Z,95.60
2022-09-29T03:55:13.284Z,95.82
2022-09-29T04:00:16.735Z,95.75
2022-09-29T04:05:20.802Z,95.76
2022-09-29T04:10:23.534Z,95.93
2022-09-29T04:15:26.348Z,96.08
2022-09-29T04:20:30.443Z,96.17
2022-09-29T04:25:33.196Z,95.91
2022-09-29T04:30:35.929Z,96.00
2022-09-29T04:35:40.118Z,96.26
2022-09-29T04:40:42.886Z,96.14
2022-09-29T04:45:45.751Z,96.13
2022-09-29T04:50:51.298Z,96.20
2022-09-29T04:55:54.225Z,96.12
2022-09-29T05:00:56.989Z,96.22
2022-09-29T05:06:01.099Z,96.26
2022-09-29T05:11:05.637Z,96.50
2022-09-29T05:16:08.967Z,96.51
2022-09-29T05:21:29.280Z,96.67
2022-09-29T05:26:32.317Z,96.85
2022-09-29T05:31:35.091Z,96.53
2022-09-29T05:36:39.507Z,96.76
2022-09-29T05:41:42.259Z,96.59
2022-09-29T05:46:44.979Z,96.45
2022-09-29T05:51:49.068Z,96.52
2022-09-29T05:56:51.782Z,96.33
2022-09-29T06:01:54.528Z,96.76
2022-09-29T06:06:58.649Z,96.65
2022-09-29T06:12:01.558Z,96.67
2022-09-29T06:17:04.297Z,96.98
2022-09-29T06:22:08.375Z,97.11
2022-09-29T06:27:11.090Z,97.28
2022-09-29T06:32:13.901Z,97.31
2022-09-29T06:37:35.983Z,97.51
2022-09-29T06:42:38.846Z,97.64
2022-09-29T06:47:41.610Z,97.60
2022-09-29T06:52:56.753Z,98.11
2022-09-29T06:58:04.648Z,98.11
2022-09-29T07:03:07.368Z,98.04
2022-09-29T07:08:11.631Z,98.13
2022-09-29T07:13:14.323Z,98.68
2022-09-29T07:18:17.016Z,98.84
2022-09-29T07:23:21.078Z,98.81
2022-09-29T07:28:24.161Z,98.93
2022-09-29T07:33:37.702Z,98.84
2022-09-29T07:38:43.539Z,98.37
2022-09-29T07:43:46.374Z,98.56
2022-09-29T07:48:49.087Z,98.06
2022-09-29T07:53:53.195Z,97.65
2022-09-29T07:58:56.359Z,97.55
2022-09-29T08:03:59.296Z,96.99
2022-09-29T08:09:05.307Z,96.88
2022-09-29T08:14:10.301Z,96.51
2022-09-29T08:24:18.682Z,95.51
2022-09-29T08:29:21.726Z,94.98
2022-09-29T08:34:24.515Z,94.45
2022-09-29T08:39:28.619Z,94.16
2022-09-29T08:44:39.538Z,93.78
2022-09-29T08:49:45.147Z,93.05
2022-09-29T08:54:54.090Z,92.42
2022-09-29T08:59:59.884Z,91.74
2022-09-29T09:05:18.105Z,91.35
2022-09-29T09:10:34.120Z,90.72
2022-09-29T09:15:54.144Z,90.04
2022-09-29T09:21:05.630Z,88.81
2022-09-29T09:26:12.295Z,88.04
2022-09-29T09:31:21.368Z,87.80
2022-09-29T09:36:34.366Z,86.64
2022-09-29T09:41:41.041Z,86.76
2022-09-29T09:46:50.947Z,86.00
2022-09-29T09:52:01.026Z,84.39
2022-09-29T09:57:30.637Z,84.11
2022-09-29T10:02:33.445Z,83.78
2022-09-29T10:07:36.190Z,83.09
2022-09-29T10:12:40.254Z,82.44
2022-09-29T10:17:48.043Z,81.84
2022-09-29T10:22:51.874Z,80.34
2022-09-29T10:27:57.654Z,79.87
2022-09-29T10:33:03.140Z,79.55
2022-09-29T10:38:11.083Z,79.03
2022-09-29T10:43:26.876Z,78.18
2022-09-29T10:48:30.206Z,77.63
2022-09-29T10:53:38.978Z,77.36
2022-09-29T10:58:59.082Z,76.64
2022-09-29T11:04:16.715Z,76.01
2022-09-29T11:09:32.287Z,75.34
2022-09-29T11:14:43.476Z,75.61
2022-09-29T11:19:46.905Z,74.47
2022-09-29T11:25:18.263Z,73.79
2022-09-29T11:30:24.884Z,73.75
2022-09-29T11:35:38.849Z,73.79
2022-09-29T11:40:53.974Z,74.51
2022-09-29T11:46:16.430Z,74.27
2022-09-29T11:51:29.675Z,73.80
2022-09-29T11:56:44.297Z,72.97
2022-09-29T12:02:03.443Z,72.68
2022-09-29T12:07:13.532Z,72.00
2022-09-29T12:12:24.791Z,71.83
2022-09-29T12:17:32.508Z,70.77
2022-09-29T12:22:37.326Z,71.55
2022-09-29T12:27:42.538Z,71.05
2022-09-29T12:32:52.553Z,70.82
2022-09-29T12:38:03.370Z,71.84
2022-09-29T12:43:14.526Z,72.36
2022-09-29T12:48:30.189Z,73.86
2022-09-29T12:53:36.305Z,74.40
2022-09-29T12:58:45.555Z,74.02
2022-09-29T13:04:31.001Z,74.03
2022-09-29T13:10:07.435Z,74.20
2022-09-29T13:15:32.218Z,74.48
2022-09-29T13:20:55.207Z,75.02
2022-09-29T13:26:09.478Z,74.17
2022-09-29T13:31:15.102Z,73.61
2022-09-29T13:36:28.530Z,73.88
2022-09-29T13:41:38.973Z,74.13
2022-09-29T13:46:41.788Z,74.24
2022-09-29T13:51:49.652Z,74.14
2022-09-29T13:57:00.373Z,74.11
2022-09-29T14:02:03.920Z,73.60
2022-09-29T14:07:09.293Z,73.68
2022-09-29T14:12:21.048Z,73.76
2022-09-29T14:17:31.034Z,74.00
2022-09-29T14:23:01.267Z,74.23
2022-09-29T14:28:08.473Z,74.58
2022-09-29T14:33:14.776Z,74.91
2022-09-29T14:38:22.023Z,75.33
2022-09-29T14:43:37.942Z,75.67
2022-09-29T14:49:09.826Z,76.00
2022-09-29T14:54:25.768Z,76.12
2022-09-29T14:59:46.661Z,75.91
2022-09-29T15:04:50.156Z,75.97
2022-09-29T15:09:56.299Z,76.18
2022-09-29T15:15:01.450Z,76.45
2022-09-29T15:20:13.136Z,76.79
2022-09-29T15:25:29.684Z,77.00
2022-09-29T15:30:34.996Z,77.83
2022-09-29T15:35:44.478Z,79.15
2022-09-29T15:40:54.796Z,80.31
2022-09-29T15:46:00.227Z,80.95
2022-09-29T15:51:04.200Z,81.82
2022-09-29T15:56:08.289Z,82.25
2022-09-29T16:01:13.812Z,82.74
2022-09-29T16:06:31.733Z,83.11
2022-09-29T16:11:38.179Z,83.45
2022-09-29T16:16:43.387Z,83.77
2022-09-29T16:21:51.235Z,83.59
2022-09-29T16:26:56.881Z,83.92
2022-09-29T16:32:00.967Z,83.69
2022-09-29T16:37:06.369Z,83.79
2022-09-29T16:42:19.967Z,84.00
2022-09-29T16:47:27.239Z,84.14
2022-09-29T16:52:34.668Z,84.39
2022-09-29T16:57:51.996Z,84.41
2022-09-29T17:02:55.497Z,84.76
2022-09-29T17:08:01.387Z,84.74
2022-09-29T17:13:11.982Z,84.80
2022-09-29T17:18:15.874Z,84.93
2022-09-29T17:23:18.573Z,85.06
2022-09-29T17:28:24.841Z,85.56
2022-09-29T17:33:27.557Z,85.67
2022-09-29T17:38:31.687Z,85.60
2022-09-29T17:43:35.758Z,85.84
2022-09-29T17:48:38.462Z,85.82
2022-09-29T17:53:42.029Z,85.95
2022-09-29T17:58:46.164Z,86.04
2022-09-29T18:03:49.735Z,86.22
2022-09-29T18:08:54.144Z,86.35
2022-09-29T18:13:58.399Z,86.76
2022-09-29T18:19:01.136Z,86.86
2022-09-29T18:24:03.875Z,87.21
2022-09-29T18:29:16.795Z,87.42
2022-09-29T18:34:22.223Z,87.74
2022-09-29T18:39:25.354Z,87.94
2022-09-29T18:44:33.398Z,88.30
2022-09-29T18:49:36.158Z,88.40
2022-09-29T18:54:38.872Z,88.76
2022-09-29T18:59:43.028Z,88.73
2022-09-29T19:04:46.590Z,89.13
2022-09-29T19:09:51.392Z,89.36
2022-09-29T19:14:55.784Z,89.49
2022-09-29T19:20:00.148Z,89.55
2022-09-29T19:25:03.276Z,89.71
2022-09-29T19:30:08.439Z,90.00
2022-09-29T19:35:13.296Z,90.23
2022-09-29T19:40:18.259Z,90.37
2022-09-29T19:45:22.655Z,90.58
2022-09-29T19:50:43.451Z,90.46
2022-09-29T19:55:46.730Z,90.25
2022-09-29T20:00:50.842Z,90.35
2022-09-29T20:06:00.178Z,90.53
2022-09-29T20:11:07.866Z,90.63
2022-09-29T20:16:12.028Z,90.82
2022-09-29T20:21:14.835Z,91.01
2022-09-29T20:26:17.975Z,91.06
2022-09-29T20:31:24.131Z,91.19
2022-09-29T20:36:27.081Z,91.36
2022-09-29T20:41:30.375Z,91.30
2022-09-29T20:46:35.325Z,91.49
2022-09-29T20:51:38.466Z,91.39
2022-09-29T20:56:42.434Z,91.70
2022-09-29T21:01:48.626Z,91.75
2022-09-29T21:06:53.011Z,91.90
2022-09-29T21:11:56.027Z,92.04
2022-09-29T21:17:00.504Z,92.12
2022-09-29T21:22:03.304Z,92.15
2022-09-29T21:27:06.231Z,92.32
2022-09-29T21:32:10.343Z,92.19
2022-09-29T21:37:13.057Z,92.20
2022-09-29T21:42:16.151Z,92.09
2022-09-29T21:47:40.224Z,92.51
2022-09-29T21:52:43.686Z,92.41
2022-09-29T21:57:46.379Z,92.50
2022-09-29T22:02:50.564Z,92.73
2022-09-29T22:07:53.676Z,92.53
2022-09-29T22:12:56.424Z,92.63
2022-09-29T22:18:00.557Z,93.02
2022-09-29T22:23:03.439Z,93.15
2022-09-29T22:28:06.182Z,93.40
2022-09-29T22:33:10.400Z,93.33
2022-09-29T22:38:13.447Z,93.42
2022-09-29T22:43:16.224Z,93.37
2022-09-29T22:48:20.981Z,93.49
2022-09-29T22:53:23.749Z,93.31
2022-09-29T22:58:26.871Z,93.09
2022-09-29T23:03:31.143Z,92.91
2022-09-29T23:08:34.540Z,92.93
2022-09-29T23:13:40.084Z,93.04
2022-09-29T23:18:45.850Z,93.19
2022-09-29T23:23:48.717Z,92.94
2022-09-29T23:28:51.522Z,93.20
2022-09-29T23:33:57.415Z,93.12
2022-09-29T23:39:14.072Z,93.27
2022-09-29T23:44:18.863Z,93.48
2022-09-29T23:49:24.515Z,93.40
2022-09-29T23:54:29.331Z,93.62
2022-09-29T23:59:32.043Z,93.63
